createdAt,value
2016-05-09T00:00:02.355Z,53
2016-05-09T00:01:01.215Z,53
2016-05-09T00:02:00.093Z,52
2016-05-09T00:02:58.519Z,52
2016-05-09T00:03:57.068Z,52
2016-05-09T00:04:55.602Z,52
2016-05-09T00:05:53.964Z,52
2016-05-09T00:06:54.967Z,52
2016-05-09T00:07:53.267Z,52
2016-05-09T00:08:51.551Z,52
2016-05-09T00:09:49.834Z,52
2016-05-09T00:10:48.118Z,52
2016-05-09T00:11:46.542Z,52
2016-05-09T00:12:44.717Z,52
2016-05-09T00:13:43.111Z,52
2016-05-09T00:14:41.286Z,52
2016-05-09T00:15:39.741Z,52
2016-05-09T00:16:40.650Z,52
2016-05-09T00:17:39.043Z,52
2016-05-09T00:18:37.217Z,52
2016-05-09T00:19:35.502Z,52
2016-05-09T00:20:33.911Z,52
2016-05-09T00:21:32.086Z,52
2016-05-09T00:22:30.385Z,52
2016-05-09T00:23:28.685Z,52
2016-05-09T00:24:26.968Z,52
2016-05-09T00:25:25.236Z,52
2016-05-09T00:26:26.348Z,52
2016-05-09T00:27:24.539Z,52
2016-05-09T00:28:23.010Z,52
2016-05-09T00:29:21.185Z,52
2016-05-09T00:30:19.469Z,51
2016-05-09T00:31:17.565Z,51
2016-05-09T00:32:15.490Z,51
2016-05-09T00:33:13.524Z,51
2016-05-09T00:34:11.604Z,51
2016-05-09T00:35:09.698Z,51
2016-05-09T00:36:10.720Z,51
2016-05-09T00:37:08.751Z,51
2016-05-09T00:38:06.784Z,51
2016-05-09T00:39:04.943Z,51
2016-05-09T00:40:02.868Z,51
2016-05-09T00:41:00.574Z,51
2016-05-09T00:41:58.420Z,51
2016-05-09T00:42:56.204Z,51
2016-05-09T00:43:54.160Z,51
2016-05-09T00:45:52.899Z,51
2016-05-09T00:46:50.637Z,51
2016-05-09T00:47:48.530Z,51
2016-05-09T00:48:46.205Z,51
2016-05-09T00:49:43.988Z,51
2016-05-09T00:50:41.898Z,51
2016-05-09T00:51:39.916Z,51
2016-05-09T00:52:37.950Z,51
2016-05-09T00:53:35.983Z,52
2016-05-09T00:54:34.252Z,52
2016-05-09T00:55:35.364Z,52
2016-05-09T00:56:33.663Z,52
2016-05-09T00:57:31.822Z,52
2016-05-09T00:58:30.044Z,52
2016-05-09T00:59:28.500Z,52
2016-05-09T01:00:26.909Z,53
2016-05-09T01:01:25.646Z,53
2016-05-09T01:02:24.508Z,53
2016-05-09T01:03:23.292Z,53
2016-05-09T01:04:22.154Z,53
2016-05-09T01:05:23.173Z,53
2016-05-09T01:06:22.221Z,53
2016-05-09T01:07:21.287Z,54
2016-05-09T01:08:20.695Z,54
2016-05-09T01:09:19.871Z,54
2016-05-09T01:10:19.296Z,54
2016-05-09T01:11:18.595Z,54
2016-05-09T01:12:17.722Z,54
2016-05-09T01:13:17.084Z,54
2016-05-09T01:14:17.008Z,54
2016-05-09T01:15:17.731Z,54
2016-05-09T01:16:17.281Z,54
2016-05-09T01:17:16.892Z,54
2016-05-09T01:18:16.333Z,54
2016-05-09T01:19:16.069Z,54
2016-05-09T01:20:15.509Z,54
2016-05-09T01:21:15.011Z,54
2016-05-09T01:22:14.625Z,54
2016-05-09T01:23:14.111Z,55
2016-05-09T01:24:14.036Z,54
2016-05-09T01:25:15.069Z,55
2016-05-09T01:26:15.010Z,55
2016-05-09T01:27:14.685Z,55
2016-05-09T01:28:14.516Z,55
2016-05-09T01:29:14.252Z,55
2016-05-09T01:30:14.177Z,55
2016-05-09T01:31:13.929Z,55
2016-05-09T01:32:13.745Z,55
2016-05-09T01:33:13.560Z,55
2016-05-09T01:34:13.438Z,55
2016-05-09T01:35:14.440Z,55
2016-05-09T01:36:14.302Z,55
2016-05-09T01:37:14.008Z,55
2016-05-09T01:38:13.871Z,55
2016-05-09T01:39:13.671Z,55
2016-05-09T01:40:13.610Z,55
2016-05-09T01:41:13.301Z,55
2016-05-09T01:42:13.225Z,55
2016-05-09T01:43:12.914Z,55
2016-05-09T01:44:13.231Z,55
2016-05-09T01:45:13.748Z,55
2016-05-09T01:46:13.736Z,55
2016-05-09T01:47:13.442Z,55
2016-05-09T01:48:13.288Z,55
2016-05-09T01:49:13.166Z,55
2016-05-09T01:50:12.918Z,55
2016-05-09T01:51:12.781Z,55
2016-05-09T01:52:12.502Z,55
2016-05-09T01:53:12.317Z,55
2016-05-09T01:54:12.098Z,55
2016-05-09T01:55:13.166Z,55
2016-05-09T01:56:13.013Z,55
2016-05-09T01:57:12.906Z,55
2016-05-09T01:58:12.533Z,55
2016-05-09T01:59:13.130Z,55
2016-05-09T02:00:12.663Z,56
2016-05-09T02:01:13.041Z,56
2016-05-09T02:02:13.388Z,55
2016-05-09T02:03:13.422Z,55
2016-05-09T02:04:13.550Z,55
2016-05-09T02:05:14.568Z,55
2016-05-09T02:06:14.742Z,55
2016-05-09T02:07:14.448Z,55
2016-05-09T02:08:14.249Z,55
2016-05-09T02:09:14.001Z,55
2016-05-09T02:10:13.879Z,55
2016-05-09T02:11:13.928Z,56
2016-05-09T02:12:14.259Z,56
2016-05-09T02:13:14.823Z,57
2016-05-09T02:14:15.765Z,57
2016-05-09T02:15:16.751Z,57
2016-05-09T02:16:17.817Z,58
2016-05-09T02:17:19.162Z,58
2016-05-09T02:18:20.837Z,58
2016-05-09T02:19:22.308Z,59
2016-05-09T02:20:20.092Z,59
2016-05-09T02:21:17.830Z,59
2016-05-09T02:22:15.880Z,60
2016-05-09T02:23:14.241Z,60
2016-05-09T02:24:12.560Z,60
2016-05-09T02:25:13.534Z,60
2016-05-09T02:26:12.112Z,60
2016-05-09T02:27:10.600Z,61
2016-05-09T02:28:09.463Z,61
2016-05-09T02:29:08.293Z,61
2016-05-09T02:30:07.170Z,61
2016-05-09T02:31:06.095Z,61
2016-05-09T02:32:05.160Z,61
2016-05-09T02:33:04.148Z,61
2016-05-09T02:34:03.260Z,61
2016-05-09T02:35:04.325Z,61
2016-05-09T02:36:03.390Z,61
2016-05-09T02:37:02.439Z,61
2016-05-09T02:38:01.598Z,61
2016-05-09T02:39:00.476Z,60
2016-05-09T02:39:59.339Z,60
2016-05-09T02:40:58.262Z,60
2016-05-09T02:41:57.047Z,60
2016-05-09T02:42:55.597Z,60
2016-05-09T02:43:54.380Z,59
2016-05-09T02:44:54.836Z,59
2016-05-09T02:45:52.745Z,58
2016-05-09T02:46:54.200Z,58
2016-05-09T02:47:55.469Z,57
2016-05-09T02:48:56.613Z,57
2016-05-09T02:49:57.444Z,56
2016-05-09T02:50:58.024Z,56
2016-05-09T02:51:58.699Z,56
2016-05-09T02:52:58.919Z,56
2016-05-09T02:53:59.407Z,56
2016-05-09T02:55:00.409Z,55
2016-05-09T02:56:00.382Z,55
2016-05-09T02:57:00.430Z,55
2016-05-09T02:58:00.496Z,55
2016-05-09T02:59:00.654Z,55
2016-05-09T03:00:00.627Z,55
2016-05-09T03:01:00.723Z,55
2016-05-09T03:02:00.866Z,55
2016-05-09T03:03:00.821Z,55
2016-05-09T03:04:00.512Z,55
2016-05-09T03:05:01.967Z,55
2016-05-09T03:06:02.033Z,55
2016-05-09T03:07:02.098Z,55
2016-05-09T03:08:02.164Z,55
2016-05-09T03:09:02.228Z,55
2016-05-09T03:10:02.232Z,55
2016-05-09T03:11:02.359Z,55
2016-05-09T03:12:02.361Z,55
2016-05-09T03:13:02.489Z,55
2016-05-09T03:14:02.992Z,55
2016-05-09T03:15:03.573Z,56
2016-05-09T03:16:03.950Z,56
2016-05-09T03:17:04.266Z,56
2016-05-09T03:18:04.628Z,56
2016-05-09T03:19:04.943Z,56
2016-05-09T03:20:05.227Z,56
2016-05-09T03:21:05.542Z,56
2016-05-09T03:22:05.967Z,56
2016-05-09T03:23:06.172Z,56
2016-05-09T03:24:06.597Z,56
2016-05-09T03:25:07.693Z,56
2016-05-09T03:26:07.899Z,56
2016-05-09T03:27:08.215Z,56
2016-05-09T03:28:08.530Z,55
2016-05-09T03:29:08.549Z,56
2016-05-09T03:30:08.910Z,56
2016-05-09T03:31:09.272Z,56
2016-05-09T03:32:09.556Z,56
2016-05-09T03:33:09.887Z,55
2016-05-09T03:34:09.998Z,55
2016-05-09T03:35:11.033Z,56
2016-05-09T03:36:11.301Z,56
2016-05-09T03:37:11.617Z,56
2016-05-09T03:38:11.978Z,56
2016-05-09T03:39:12.310Z,56
2016-05-09T03:40:12.625Z,56
2016-05-09T03:41:13.065Z,56
2016-05-09T03:42:13.286Z,56
2016-05-09T03:43:13.586Z,56
2016-05-09T03:44:13.963Z,56
2016-05-09T03:45:15.109Z,56
2016-05-09T03:46:15.300Z,56
2016-05-09T03:47:15.630Z,56
2016-05-09T03:48:15.977Z,56
2016-05-09T03:49:16.261Z,56
2016-05-09T03:50:16.700Z,55
2016-05-09T03:51:16.969Z,55
2016-05-09T03:52:16.722Z,55
2016-05-09T03:53:16.771Z,55
2016-05-09T03:54:16.899Z,55
2016-05-09T03:56:17.983Z,55
2016-05-09T03:57:18.079Z,55
2016-05-09T03:58:18.113Z,55
2016-05-09T03:59:18.537Z,56
2016-05-09T04:00:18.510Z,56
2016-05-09T04:01:18.934Z,56
2016-05-09T04:02:19.124Z,56
2016-05-09T04:03:19.485Z,56
2016-05-09T04:04:20.067Z,56
2016-05-09T04:05:21.100Z,57
2016-05-09T04:06:21.932Z,57
2016-05-09T04:07:22.746Z,57
2016-05-09T04:08:23.828Z,57
2016-05-09T04:09:24.892Z,58
2016-05-09T04:10:26.161Z,58
2016-05-09T04:11:27.553Z,58
2016-05-09T04:12:29.135Z,58
2016-05-09T04:13:30.748Z,58
2016-05-09T04:14:32.312Z,58
2016-05-09T04:15:33.314Z,58
2016-05-09T04:16:34.661Z,58
2016-05-09T04:17:36.055Z,57
2016-05-09T04:18:37.120Z,57
2016-05-09T04:19:37.951Z,57
2016-05-09T04:20:38.813Z,56
2016-05-09T04:21:39.346Z,56
2016-05-09T04:22:39.771Z,56
2016-05-09T04:23:39.914Z,56
2016-05-09T04:24:40.339Z,55
2016-05-09T04:25:41.358Z,55
2016-05-09T04:26:41.438Z,55
2016-05-09T04:27:41.613Z,55
2016-05-09T04:28:41.507Z,55
2016-05-09T04:29:41.102Z,55
2016-05-09T04:30:40.855Z,55
2016-05-09T04:31:40.733Z,55
2016-05-09T04:32:40.532Z,54
2016-05-09T04:33:40.098Z,54
2016-05-09T04:34:39.819Z,54
2016-05-09T04:35:40.665Z,54
2016-05-09T04:36:40.403Z,54
2016-05-09T04:37:39.781Z,54
2016-05-09T04:38:39.471Z,54
2016-05-09T04:39:38.957Z,54
2016-05-09T04:40:38.632Z,54
2016-05-09T04:41:38.181Z,54
2016-05-09T04:42:37.622Z,54
2016-05-09T04:43:37.297Z,55
2016-05-09T04:44:37.065Z,54
2016-05-09T04:45:38.021Z,55
2016-05-09T04:46:37.883Z,55
2016-05-09T04:47:37.682Z,55
2016-05-09T04:48:37.513Z,55
2016-05-09T04:49:37.329Z,55
2016-05-09T04:50:37.111Z,55
2016-05-09T04:51:36.928Z,55
2016-05-09T04:52:36.758Z,55
2016-05-09T04:53:36.495Z,55
2016-05-09T04:54:36.451Z,55
2016-05-09T04:55:37.439Z,55
2016-05-09T04:56:37.253Z,55
2016-05-09T04:57:37.053Z,55
2016-05-09T04:58:36.868Z,55
2016-05-09T04:59:36.699Z,55
2016-05-09T05:00:36.545Z,55
2016-05-09T05:01:36.596Z,55
2016-05-09T05:02:36.629Z,55
2016-05-09T05:03:36.679Z,55
2016-05-09T05:04:36.837Z,56
2016-05-09T05:05:37.824Z,56
2016-05-09T05:06:38.140Z,56
2016-05-09T05:07:38.455Z,56
2016-05-09T05:08:39.020Z,57
2016-05-09T05:09:39.882Z,58
2016-05-09T05:10:41.307Z,58
2016-05-09T05:11:42.762Z,59
2016-05-09T05:12:40.671Z,60
2016-05-09T05:13:39.987Z,60
2016-05-09T05:14:37.567Z,61
2016-05-09T05:15:38.039Z,61
2016-05-09T05:16:37.275Z,61
2016-05-09T05:17:36.045Z,61
2016-05-09T05:18:34.797Z,60
2016-05-09T05:19:33.409Z,60
2016-05-09T05:20:31.880Z,60
2016-05-09T05:21:30.336Z,59
2016-05-09T05:22:28.260Z,59
2016-05-09T05:23:26.045Z,58
2016-05-09T05:24:27.798Z,58
2016-05-09T05:25:28.706Z,57
2016-05-09T05:26:29.787Z,57
2016-05-09T05:27:30.602Z,56
2016-05-09T05:28:31.183Z,56
2016-05-09T05:29:31.952Z,55
2016-05-09T05:30:31.549Z,55
2016-05-09T05:31:31.301Z,55
2016-05-09T05:32:31.178Z,54
2016-05-09T05:33:30.727Z,54
2016-05-09T05:34:30.043Z,54
2016-05-09T05:35:31.124Z,53
2016-05-09T05:36:30.158Z,53
2016-05-09T05:37:29.207Z,53
2016-05-09T05:38:28.007Z,53
2016-05-09T05:39:26.806Z,52
2016-05-09T05:40:25.387Z,52
2016-05-09T05:41:23.906Z,52
2016-05-09T05:42:22.190Z,52
2016-05-09T05:43:20.473Z,52
2016-05-09T05:44:19.336Z,52
2016-05-09T05:45:19.901Z,52
2016-05-09T05:46:18.248Z,51
2016-05-09T05:47:16.170Z,51
2016-05-09T05:48:13.969Z,51
2016-05-09T05:49:11.675Z,51
2016-05-09T05:50:09.520Z,51
2016-05-09T05:51:07.414Z,51
2016-05-09T05:52:05.010Z,50
2016-05-09T05:53:06.653Z,50
2016-05-09T05:54:08.298Z,50
2016-05-09T05:55:09.456Z,50
2016-05-09T05:56:10.944Z,50
2016-05-09T05:57:12.227Z,50
2016-05-09T05:58:13.558Z,50
2016-05-09T05:59:15.169Z,50
2016-05-09T06:00:16.219Z,50
2016-05-09T06:01:17.718Z,50
2016-05-09T06:02:18.936Z,49
2016-05-09T06:03:20.265Z,49
2016-05-09T06:04:21.421Z,49
2016-05-09T06:05:22.330Z,49
2016-05-09T06:06:23.427Z,49
2016-05-09T06:07:24.444Z,49
2016-05-09T06:08:25.353Z,49
2016-05-09T06:09:26.122Z,49
2016-05-09T06:10:27.115Z,49
2016-05-09T06:11:27.826Z,49
2016-05-09T06:12:28.616Z,49
2016-05-09T06:13:29.521Z,48
2016-05-09T06:14:30.388Z,48
2016-05-09T06:15:31.268Z,48
2016-05-09T06:16:31.663Z,48
2016-05-09T06:17:32.402Z,48
2016-05-09T06:18:32.845Z,48
2016-05-09T06:19:33.177Z,48
2016-05-09T06:20:33.477Z,48
2016-05-09T06:21:33.777Z,48
2016-05-09T06:22:34.249Z,48
2016-05-09T06:23:34.533Z,48
2016-05-09T06:24:34.897Z,48
2016-05-09T06:25:35.790Z,48
2016-05-09T06:26:36.043Z,48
2016-05-09T06:27:36.406Z,48
2016-05-09T06:28:36.845Z,47
2016-05-09T06:29:36.801Z,47
2016-05-09T06:30:36.898Z,47
2016-05-09T06:31:36.916Z,47
2016-05-09T06:32:36.965Z,47
2016-05-09T06:33:37.015Z,47
2016-05-09T06:34:36.877Z,47
2016-05-09T06:35:37.911Z,47
2016-05-09T06:36:37.742Z,47
2016-05-09T06:37:37.557Z,47
2016-05-09T06:38:37.310Z,47
2016-05-09T06:39:37.219Z,47
2016-05-09T06:41:36.662Z,47
2016-05-09T06:42:36.571Z,47
2016-05-09T06:43:36.463Z,47
2016-05-09T06:44:36.233Z,46
2016-05-09T06:45:37.141Z,46
2016-05-09T06:46:36.863Z,46
2016-05-09T06:47:36.303Z,46
2016-05-09T06:48:35.868Z,46
2016-05-09T06:49:35.512Z,46
2016-05-09T06:50:35.061Z,46
2016-05-09T06:51:34.626Z,46
2016-05-09T06:52:33.784Z,46
2016-05-09T06:53:33.194Z,46
2016-05-09T06:54:32.447Z,46
2016-05-09T06:55:33.450Z,46
2016-05-09T06:56:32.859Z,46
2016-05-09T06:57:32.033Z,46
2016-05-09T06:58:31.348Z,46
2016-05-09T06:59:30.820Z,46
2016-05-09T07:00:29.963Z,46
2016-05-09T07:01:29.231Z,45
2016-05-09T07:02:28.280Z,45
2016-05-09T07:03:27.314Z,45
2016-05-09T07:04:26.411Z,45
2016-05-09T07:05:27.429Z,45
2016-05-09T07:06:26.230Z,45
2016-05-09T07:07:25.013Z,45
2016-05-09T07:08:23.813Z,45
2016-05-09T07:09:22.580Z,45
2016-05-09T07:10:21.377Z,45
2016-05-09T07:11:20.177Z,45
2016-05-09T07:12:18.977Z,45
2016-05-09T07:13:17.683Z,44
2016-05-09T07:14:16.342Z,44
2016-05-09T07:15:17.485Z,44
2016-05-09T07:16:16.035Z,44
2016-05-09T07:17:14.427Z,44
2016-05-09T07:18:12.962Z,44
2016-05-09T07:19:11.230Z,44
2016-05-09T07:20:09.529Z,44
2016-05-09T07:21:07.829Z,44
2016-05-09T07:22:06.035Z,44
2016-05-09T07:23:04.365Z,44
2016-05-09T07:24:02.696Z,44
2016-05-09T07:25:03.715Z,44
2016-05-09T07:26:02.015Z,44
2016-05-09T07:27:00.314Z,43
2016-05-09T07:27:58.301Z,43
2016-05-09T07:28:56.367Z,43
2016-05-09T07:29:54.463Z,43
2016-05-09T07:30:52.528Z,43
2016-05-09T07:31:50.389Z,43
2016-05-09T07:32:48.440Z,43
2016-05-09T07:33:46.520Z,43
2016-05-09T07:34:47.539Z,43
2016-05-09T07:35:45.495Z,43
2016-05-09T07:36:43.591Z,43
2016-05-09T07:37:41.609Z,43
2016-05-09T07:38:39.628Z,43
2016-05-09T07:39:37.349Z,43
2016-05-09T07:40:35.555Z,43
2016-05-09T07:41:33.480Z,43
2016-05-09T07:42:31.247Z,43
2016-05-09T07:43:32.016Z,43
2016-05-09T07:44:30.363Z,43
2016-05-09T07:45:27.847Z,43
2016-05-09T07:46:25.568Z,43
2016-05-09T07:47:23.399Z,43
2016-05-09T07:48:21.340Z,43
2016-05-09T07:49:18.951Z,43
2016-05-09T07:50:16.752Z,43
2016-05-09T07:51:14.509Z,43
2016-05-09T07:53:10.108Z,43
2016-05-09T07:54:11.267Z,43
2016-05-09T07:55:08.893Z,43
2016-05-09T07:56:06.688Z,43
2016-05-09T07:57:04.488Z,43
2016-05-09T07:58:02.333Z,43
2016-05-09T07:59:00.056Z,43
2016-05-09T07:59:57.761Z,43
2016-05-09T08:00:55.732Z,43
2016-05-09T08:01:53.563Z,43
2016-05-09T08:02:51.394Z,43
2016-05-09T08:03:52.521Z,43
2016-05-09T08:04:51.665Z,43
2016-05-09T08:09:48.788Z,42
2016-05-09T08:10:40.666Z,42
2016-05-09T08:12:43.656Z,42
2016-05-09T08:13:48.017Z,43
2016-05-09T08:14:42.551Z,42
2016-05-09T08:15:43.961Z,43
2016-05-09T08:16:42.042Z,43
2016-05-09T08:17:39.763Z,43
2016-05-09T08:18:37.531Z,43
2016-05-09T08:19:35.299Z,43
2016-05-09T08:20:33.084Z,43
2016-05-09T08:21:31.053Z,43
2016-05-09T08:22:28.945Z,44
2016-05-09T08:23:32.025Z,43
2016-05-09T08:24:27.733Z,43
2016-05-09T08:25:25.532Z,42
2016-05-09T08:26:27.222Z,42
2016-05-09T08:27:28.412Z,43
2016-05-09T08:28:26.243Z,43
2016-05-09T08:29:23.917Z,44
2016-05-09T08:31:20.797Z,44
2016-05-09T08:32:19.394Z,45
2016-05-09T08:33:20.569Z,44
2016-05-09T08:34:18.696Z,44
2016-05-09T08:35:17.340Z,45
2016-05-09T08:36:16.030Z,45
2016-05-09T08:37:15.080Z,45
2016-05-09T08:38:13.988Z,45
2016-05-09T08:39:12.584Z,46
2016-05-09T08:40:12.056Z,46
2016-05-09T08:41:11.247Z,46
2016-05-09T08:42:10.656Z,46
2016-05-09T08:43:11.627Z,46
2016-05-09T08:44:10.848Z,46
2016-05-09T08:45:10.148Z,47
2016-05-09T08:46:09.948Z,46
2016-05-09T08:47:09.309Z,46
2016-05-09T08:48:08.859Z,46
2016-05-09T08:49:08.128Z,47
2016-05-09T08:50:08.161Z,46
2016-05-09T08:51:07.773Z,47
2016-05-09T08:52:07.636Z,49
2016-05-09T08:53:08.639Z,49
2016-05-09T08:54:09.594Z,47
2016-05-09T08:55:09.534Z,47
2016-05-09T08:56:09.584Z,48
2016-05-09T08:57:09.899Z,48
2016-05-09T08:58:10.277Z,47
2016-05-09T08:59:10.327Z,47
2016-05-09T09:00:10.063Z,48
2016-05-09T09:01:10.378Z,49
2016-05-09T09:02:11.116Z,48
2016-05-09T09:03:12.024Z,47
2016-05-09T09:04:12.199Z,49
2016-05-09T09:05:12.889Z,49
2016-05-09T09:06:13.454Z,49
2016-05-09T09:07:14.160Z,49
2016-05-09T09:08:14.803Z,50
2016-05-09T09:09:15.979Z,49
2016-05-09T09:10:16.793Z,50
2016-05-09T09:11:18.076Z,51
2016-05-09T09:12:19.720Z,52
2016-05-09T09:13:20.708Z,53
2016-05-09T09:14:19.523Z,53
2016-05-09T09:15:18.432Z,53
2016-05-09T09:16:17.091Z,53
2016-05-09T09:17:16.000Z,54
2016-05-09T09:18:14.878Z,54
2016-05-09T09:19:14.256Z,54
2016-05-09T09:20:13.273Z,54
2016-05-09T09:21:12.573Z,55
2016-05-09T09:22:12.466Z,55
2016-05-09T09:23:13.578Z,55
2016-05-09T09:24:13.269Z,56
2016-05-09T09:25:13.334Z,56
2016-05-09T09:26:13.649Z,55
2016-05-09T09:27:13.448Z,56
2016-05-09T09:28:13.436Z,56
2016-05-09T09:29:14.313Z,56
2016-05-09T09:30:14.253Z,57
2016-05-09T09:31:14.693Z,57
2016-05-09T09:32:15.353Z,57
2016-05-09T09:33:16.324Z,57
2016-05-09T09:34:16.905Z,57
2016-05-09T09:35:17.424Z,56
2016-05-09T09:36:17.785Z,56
2016-05-09T09:37:18.038Z,57
2016-05-09T09:38:18.682Z,57
2016-05-09T09:39:19.512Z,57
2016-05-09T09:40:20.327Z,58
2016-05-09T09:41:21.502Z,59
2016-05-09T09:42:23.098Z,59
2016-05-09T09:43:24.038Z,60
2016-05-09T09:44:22.197Z,60
2016-05-09T09:45:20.247Z,60
2016-05-09T09:46:18.656Z,60
2016-05-09T09:47:16.689Z,60
2016-05-09T09:48:15.224Z,60
2016-05-09T09:49:13.773Z,61
2016-05-09T09:50:12.557Z,61
2016-05-09T09:51:11.356Z,60
2016-05-09T09:52:10.094Z,60
2016-05-09T09:53:11.081Z,61
2016-05-09T09:54:09.881Z,61
2016-05-09T09:55:08.571Z,61
2016-05-09T09:56:07.464Z,61
2016-05-09T09:57:06.264Z,61
2016-05-09T09:58:04.985Z,61
2016-05-09T09:59:04.019Z,61
2016-05-09T10:00:02.974Z,61
2016-05-09T10:01:01.868Z,61
2016-05-09T10:02:00.684Z,61
2016-05-09T10:03:01.639Z,61
2016-05-09T10:04:00.611Z,61
2016-05-09T10:04:59.333Z,61
2016-05-09T10:05:58.085Z,61
2016-05-09T10:06:57.040Z,61
2016-05-09T10:07:55.621Z,61
2016-05-09T10:08:54.733Z,61
2016-05-09T10:09:53.454Z,61
2016-05-09T10:10:52.332Z,61
2016-05-09T10:11:51.179Z,61
2016-05-09T10:12:52.229Z,61
2016-05-09T10:13:52.154Z,62
2016-05-09T10:14:50.484Z,62
2016-05-09T10:15:49.830Z,62
2016-05-09T10:16:49.099Z,62
2016-05-09T10:17:48.445Z,62
2016-05-09T10:18:48.104Z,62
2016-05-09T10:19:47.545Z,63
2016-05-09T10:20:47.359Z,63
2016-05-09T10:21:47.221Z,63
2016-05-09T10:22:48.240Z,63
2016-05-09T10:23:48.039Z,63
2016-05-09T10:24:48.042Z,63
2016-05-09T10:25:48.186Z,63
2016-05-09T10:26:48.234Z,63
2016-05-09T10:27:48.284Z,63
2016-05-09T10:28:48.506Z,64
2016-05-09T10:29:48.681Z,64
2016-05-09T10:30:48.980Z,64
2016-05-09T10:31:49.295Z,64
2016-05-09T10:32:50.500Z,64
2016-05-09T10:33:50.817Z,64
2016-05-09T10:34:51.006Z,64
2016-05-09T10:35:51.353Z,64
2016-05-09T10:36:51.636Z,64
2016-05-09T10:37:51.905Z,64
2016-05-09T10:38:52.282Z,64
2016-05-09T10:39:52.598Z,64
2016-05-09T10:40:53.163Z,64
2016-05-09T10:41:53.791Z,64
2016-05-09T10:42:54.810Z,64
2016-05-09T10:43:55.484Z,64
2016-05-09T10:44:55.940Z,64
2016-05-09T10:45:56.520Z,64
2016-05-09T10:46:57.085Z,64
2016-05-09T10:47:57.666Z,64
2016-05-09T10:48:58.232Z,64
2016-05-09T10:49:58.796Z,64
2016-05-09T10:50:59.487Z,64
2016-05-09T10:51:59.989Z,64
2016-05-09T10:53:01.008Z,65
2016-05-09T10:54:01.839Z,65
2016-05-09T10:55:02.607Z,65
2016-05-09T10:56:03.485Z,65
2016-05-09T10:57:04.300Z,65
2016-05-09T10:58:05.084Z,65
2016-05-09T10:59:06.164Z,65
2016-05-09T11:00:06.902Z,65
2016-05-09T11:01:07.545Z,65
2016-05-09T11:02:08.594Z,65
2016-05-09T11:03:09.441Z,65
2016-05-09T11:04:10.319Z,65
2016-05-09T11:05:11.149Z,65
2016-05-09T11:06:12.089Z,65
2016-05-09T11:07:12.811Z,65
2016-05-09T11:08:13.627Z,65
2016-05-09T11:09:14.379Z,65
2016-05-09T11:10:15.382Z,65
2016-05-09T11:11:16.087Z,65
2016-05-09T11:12:17.012Z,65
2016-05-09T11:13:18.000Z,65
2016-05-09T11:14:19.033Z,65
2016-05-09T11:15:20.146Z,65
2016-05-09T11:16:20.976Z,65
2016-05-09T11:17:22.056Z,65
2016-05-09T11:18:23.059Z,65
2016-05-09T11:19:24.218Z,65
2016-05-09T11:20:25.221Z,65
2016-05-09T11:21:26.473Z,65
2016-05-09T11:22:27.539Z,65
2016-05-09T11:23:28.510Z,65
2016-05-09T11:24:29.451Z,65
2016-05-09T11:25:30.095Z,65
2016-05-09T11:26:31.003Z,64
2016-05-09T11:27:31.803Z,64
2016-05-09T11:28:32.556Z,64
2016-05-09T11:29:33.386Z,64
2016-05-09T11:30:34.263Z,65
2016-05-09T11:31:35.345Z,64
2016-05-09T11:32:36.222Z,65
2016-05-09T11:33:37.241Z,65
2016-05-09T11:34:38.258Z,65
2016-05-09T11:35:39.339Z,65
2016-05-09T11:36:40.483Z,65
2016-05-09T11:37:41.564Z,65
2016-05-09T11:38:42.632Z,65
2016-05-09T11:39:43.666Z,65
2016-05-09T11:40:44.794Z,65
2016-05-09T11:41:45.890Z,65
2016-05-09T11:42:47.111Z,65
2016-05-09T11:43:47.958Z,65
2016-05-09T11:44:49.038Z,65
2016-05-09T11:45:50.104Z,65
2016-05-09T11:46:51.246Z,65
2016-05-09T11:47:52.328Z,65
2016-05-09T11:48:53.393Z,65
2016-05-09T11:49:54.426Z,65
2016-05-09T11:50:55.554Z,65
2016-05-09T11:51:56.823Z,65
2016-05-09T11:52:58.295Z,65
2016-05-09T11:53:59.298Z,65
2016-05-09T11:55:00.628Z,65
2016-05-09T11:56:01.958Z,65
2016-05-09T11:57:03.289Z,65
2016-05-09T11:58:04.621Z,65
2016-05-09T11:59:05.998Z,65
2016-05-09T12:00:07.406Z,65
2016-05-09T12:01:08.675Z,65
2016-05-09T12:02:10.069Z,65
2016-05-09T12:03:11.259Z,65
2016-05-09T12:04:12.356Z,65
2016-05-09T12:05:13.436Z,65
2016-05-09T12:06:14.500Z,65
2016-05-09T12:07:15.597Z,65
2016-05-09T12:08:16.664Z,65
2016-05-09T12:09:18.056Z,65
2016-05-09T12:10:19.340Z,65
2016-05-09T12:11:20.436Z,65
2016-05-09T12:12:21.485Z,65
2016-05-09T12:13:22.614Z,65
2016-05-09T12:14:23.647Z,65
2016-05-09T12:15:24.713Z,65
2016-05-09T12:16:25.793Z,65
2016-05-09T12:17:26.874Z,65
2016-05-09T12:18:28.065Z,65
2016-05-09T12:19:29.036Z,65
2016-05-09T12:20:30.101Z,65
2016-05-09T12:21:31.198Z,65
2016-05-09T12:22:32.513Z,65
2016-05-09T12:23:33.907Z,65
2016-05-09T12:24:34.862Z,65
2016-05-09T12:25:36.255Z,65
2016-05-09T12:26:37.586Z,65
2016-05-09T12:27:38.917Z,65
2016-05-09T12:28:40.201Z,65
2016-05-09T12:29:41.720Z,65
2016-05-09T12:30:42.909Z,65
2016-05-09T12:31:44.397Z,65
2016-05-09T12:32:45.528Z,65
2016-05-09T12:33:46.967Z,65
2016-05-09T12:34:48.001Z,65
2016-05-09T12:35:49.456Z,65
2016-05-09T12:36:50.663Z,65
2016-05-09T12:37:51.994Z,65
2016-05-09T12:38:53.261Z,65
2016-05-09T12:39:54.655Z,65
2016-05-09T12:40:55.986Z,65
2016-05-09T12:41:57.317Z,66
2016-05-09T12:42:58.913Z,66
2016-05-09T12:44:01.274Z,66
2016-05-09T12:45:01.685Z,66
2016-05-09T12:46:03.156Z,65
2016-05-09T12:47:04.486Z,65
2016-05-09T12:48:05.818Z,65
2016-05-09T12:49:07.101Z,65
2016-05-09T12:50:09.855Z,65
2016-05-09T12:51:09.935Z,65
2016-05-09T12:52:11.141Z,65
2016-05-09T12:53:12.471Z,65
2016-05-09T12:54:13.864Z,65
2016-05-09T12:55:15.008Z,65
2016-05-09T12:56:16.246Z,65
2016-05-09T12:57:17.560Z,65
2016-05-09T12:58:18.626Z,65
2016-05-09T12:59:19.987Z,65
2016-05-09T13:00:20.725Z,65
2016-05-09T13:01:21.868Z,65
2016-05-09T13:02:22.949Z,65
2016-05-09T13:03:24.295Z,65
2016-05-09T13:04:25.673Z,65
2016-05-09T13:05:26.628Z,65
2016-05-09T13:06:28.162Z,65
2016-05-09T13:07:29.353Z,65
2016-05-09T13:08:30.684Z,65
2016-05-09T13:09:32.014Z,65
2016-05-09T13:10:33.345Z,65
2016-05-09T13:11:34.675Z,65
2016-05-09T13:12:36.007Z,65
2016-05-09T13:13:37.338Z,65
2016-05-09T13:14:38.747Z,65
2016-05-09T13:15:39.750Z,65
2016-05-09T13:16:41.096Z,65
2016-05-09T13:17:42.536Z,65
2016-05-09T13:18:43.069Z,65
2016-05-09T13:19:44.589Z,65
2016-05-09T13:20:45.638Z,65
2016-05-09T13:21:46.844Z,65
2016-05-09T13:22:48.052Z,65
2016-05-09T13:23:49.148Z,65
2016-05-09T13:24:50.527Z,65
2016-05-09T13:25:51.545Z,65
2016-05-09T13:26:52.626Z,65
2016-05-09T13:27:53.706Z,65
2016-05-09T13:28:54.787Z,65
2016-05-09T13:29:55.868Z,65
2016-05-09T13:30:57.059Z,65
2016-05-09T13:31:58.014Z,65
2016-05-09T13:32:59.220Z,65
2016-05-09T13:34:00.159Z,64
2016-05-09T13:35:01.054Z,64
2016-05-09T13:36:03.400Z,64
2016-05-09T13:37:02.903Z,64
2016-05-09T13:38:03.717Z,64
2016-05-09T13:39:04.673Z,64
2016-05-09T13:40:05.488Z,64
2016-05-09T13:41:06.194Z,65
2016-05-09T13:42:07.275Z,65
2016-05-09T13:43:08.356Z,65
2016-05-09T13:44:09.436Z,65
2016-05-09T13:45:10.502Z,65
2016-05-09T13:46:11.692Z,65
2016-05-09T13:47:12.663Z,65
2016-05-09T13:48:13.729Z,65
2016-05-09T13:49:14.840Z,65
2016-05-09T13:50:15.890Z,65
2016-05-09T13:51:16.971Z,65
2016-05-09T13:52:18.021Z,65
2016-05-09T13:53:19.133Z,65
2016-05-09T13:54:20.323Z,65
2016-05-09T13:55:21.341Z,65
2016-05-09T13:56:22.376Z,65
2016-05-09T13:57:23.441Z,65
2016-05-09T13:58:24.521Z,65
2016-05-09T13:59:25.602Z,64
2016-05-09T14:00:26.432Z,64
2016-05-09T14:01:27.248Z,64
2016-05-09T14:02:28.079Z,64
2016-05-09T14:03:28.848Z,64
2016-05-09T14:04:29.725Z,64
2016-05-09T14:05:30.603Z,64
2016-05-09T14:06:31.621Z,64
2016-05-09T14:07:32.451Z,64
2016-05-09T14:08:33.283Z,64
2016-05-09T14:09:34.114Z,64
2016-05-09T14:10:34.928Z,64
2016-05-09T14:11:35.759Z,64
2016-05-09T14:12:36.574Z,64
2016-05-09T14:13:37.405Z,64
2016-05-09T14:14:38.267Z,64
2016-05-09T14:15:39.114Z,64
2016-05-09T14:16:40.147Z,65
2016-05-09T14:17:41.275Z,65
2016-05-09T14:18:42.294Z,65
2016-05-09T14:19:43.375Z,65
2016-05-09T14:20:44.471Z,65
2016-05-09T14:21:45.661Z,65
2016-05-09T14:22:46.617Z,65
2016-05-09T14:23:47.729Z,65
2016-05-09T14:24:48.763Z,65